createdAt,value
2017-06-26T00:01:14.964Z,52.10
2017-06-26T00:03:43.238Z,52.00
2017-06-26T00:06:11.571Z,52.30
2017-06-26T00:08:39.840Z,52.50
2017-06-26T00:11:08.119Z,52.40
2017-06-26T00:13:36.431Z,52.40
2017-06-26T00:16:04.713Z,52.90
2017-06-26T00:18:32.983Z,52.70
2017-06-26T00:21:01.291Z,52.80
2017-06-26T00:23:29.568Z,53.00
2017-06-26T00:25:57.845Z,53.00
2017-06-26T00:28:26.167Z,53.20
2017-06-26T00:30:55.218Z,54.50
2017-06-26T00:33:23.488Z,53.80
2017-06-26T00:35:51.807Z,53.80
2017-06-26T00:38:20.092Z,53.80
2017-06-26T00:40:48.371Z,53.80
2017-06-26T00:43:16.709Z,53.70
2017-06-26T00:45:44.993Z,53.70
2017-06-26T00:48:13.264Z,53.70
2017-06-26T00:50:41.596Z,53.70
2017-06-26T00:53:09.871Z,54.50
2017-06-26T00:55:38.148Z,54.60
2017-06-26T00:58:06.479Z,54.70
2017-06-26T01:00:34.765Z,55.10
2017-06-26T01:03:03.040Z,55.00
2017-06-26T01:05:32.348Z,55.80
2017-06-26T01:08:00.627Z,55.30
2017-06-26T01:10:28.900Z,55.40
2017-06-26T01:12:57.236Z,55.70
2017-06-26T01:15:25.512Z,56.20
2017-06-26T01:17:54.711Z,55.50
2017-06-26T01:20:23.024Z,55.40
2017-06-26T01:22:52.070Z,54.90
2017-06-26T01:25:20.347Z,54.90
2017-06-26T01:27:48.669Z,55.50
2017-06-26T01:30:16.947Z,55.30
2017-06-26T01:32:45.223Z,55.40
2017-06-26T01:35:13.828Z,55.00
2017-06-26T01:37:42.867Z,54.90
2017-06-26T01:40:11.481Z,54.90
2017-06-26T01:42:39.811Z,55.10
2017-06-26T01:45:08.092Z,55.30
2017-06-26T01:47:37.131Z,54.90
2017-06-26T01:50:05.462Z,54.80
2017-06-26T01:52:33.738Z,54.80
2017-06-26T01:55:02.021Z,54.50
2017-06-26T01:57:30.336Z,55.00
2017-06-26T01:59:58.612Z,54.70
2017-06-26T02:02:26.892Z,55.10
2017-06-26T02:04:55.200Z,54.70
2017-06-26T02:07:24.248Z,54.80
2017-06-26T02:09:52.536Z,54.60
2017-06-26T02:12:21.628Z,54.90
2017-06-26T02:14:50.723Z,55.10
2017-06-26T02:17:19.008Z,55.10
2017-06-26T02:19:47.439Z,55.30
2017-06-26T02:22:16.476Z,55.10
2017-06-26T02:24:44.752Z,55.10
2017-06-26T02:27:13.069Z,55.30
2017-06-26T02:29:41.342Z,55.60
2017-06-26T02:32:09.635Z,55.10
2017-06-26T02:34:37.957Z,55.60
2017-06-26T02:37:06.236Z,55.50
2017-06-26T02:39:34.516Z,55.60
2017-06-26T02:42:02.843Z,55.70
2017-06-26T02:44:31.117Z,55.90
2017-06-26T02:46:59.393Z,56.00
2017-06-26T02:49:27.888Z,56.10
2017-06-26T02:51:56.168Z,56.20
2017-06-26T02:54:24.451Z,56.40
2017-06-26T02:56:52.771Z,56.40
2017-06-26T02:59:21.823Z,56.40
2017-06-26T03:01:50.096Z,56.40
2017-06-26T03:04:18.420Z,56.40
2017-06-26T03:06:46.708Z,56.90
2017-06-26T03:09:14.987Z,56.60
2017-06-26T03:11:55.261Z,56.40
2017-06-26T03:14:23.539Z,56.80
2017-06-26T03:16:51.824Z,56.30
2017-06-26T03:19:20.165Z,56.70
2017-06-26T03:21:48.440Z,56.60
2017-06-26T03:24:16.719Z,56.60
2017-06-26T03:26:45.033Z,56.40
2017-06-26T03:29:13.312Z,56.60
2017-06-26T03:31:41.592Z,56.70
2017-06-26T03:34:09.901Z,56.30
2017-06-26T03:36:38.942Z,56.30
2017-06-26T03:39:07.219Z,56.30
2017-06-26T03:41:35.544Z,56.00
2017-06-26T03:44:03.820Z,56.10
2017-06-26T03:46:32.092Z,56.30
2017-06-26T03:49:00.421Z,56.00
2017-06-26T03:51:28.701Z,56.10
2017-06-26T03:53:56.987Z,56.30
2017-06-26T03:56:25.681Z,56.40
2017-06-26T03:58:54.729Z,55.90
2017-06-26T04:01:23.005Z,55.80
2017-06-26T04:03:51.320Z,56.10
2017-06-26T04:06:19.596Z,56.00
2017-06-26T04:08:47.874Z,55.90
2017-06-26T04:11:16.190Z,56.00
2017-06-26T04:13:44.467Z,56.50
2017-06-26T04:16:12.748Z,56.20
2017-06-26T04:18:41.064Z,55.70
2017-06-26T04:21:09.340Z,55.80
2017-06-26T04:23:37.621Z,55.80
2017-06-26T04:26:05.944Z,55.90
2017-06-26T04:28:34.232Z,55.90
2017-06-26T04:31:02.520Z,56.00
2017-06-26T04:33:31.134Z,55.80
2017-06-26T04:36:00.180Z,56.60
2017-06-26T04:38:28.456Z,56.50
2017-06-26T04:40:56.764Z,56.20
2017-06-26T04:43:25.048Z,55.90
2017-06-26T04:45:53.335Z,55.80
2017-06-26T04:48:21.645Z,55.80
2017-06-26T04:50:49.931Z,56.10
2017-06-26T04:53:18.204Z,55.50
2017-06-26T04:55:46.724Z,55.80
2017-06-26T04:58:15.277Z,55.90
2017-06-26T05:00:44.320Z,55.70
2017-06-26T05:03:12.640Z,55.70
2017-06-26T05:05:40.915Z,55.00
2017-06-26T05:08:09.192Z,55.00
2017-06-26T05:10:37.501Z,55.20
2017-06-26T05:13:06.544Z,55.30
2017-06-26T05:15:34.824Z,55.20
2017-06-26T05:18:03.153Z,55.10
2017-06-26T05:20:31.452Z,55.50
2017-06-26T05:22:59.729Z,55.60
2017-06-26T05:25:29.004Z,54.90
2017-06-26T05:27:58.056Z,54.60
2017-06-26T05:30:26.343Z,54.60
2017-06-26T05:32:55.436Z,54.30
2017-06-26T05:35:23.719Z,54.30
2017-06-26T05:37:52.004Z,53.90
2017-06-26T05:40:20.344Z,53.60
2017-06-26T05:42:48.650Z,54.40
2017-06-26T05:45:16.920Z,54.10
2017-06-26T05:47:45.252Z,53.80
2017-06-26T05:50:13.526Z,54.30
2017-06-26T05:52:41.802Z,54.30
2017-06-26T05:55:10.163Z,54.30
2017-06-26T05:57:38.431Z,54.20
2017-06-26T06:00:06.712Z,54.30
2017-06-26T06:02:35.056Z,54.50
2017-06-26T06:05:03.332Z,54.60
2017-06-26T06:07:32.376Z,53.30
2017-06-26T06:10:00.705Z,53.30
2017-06-26T06:12:28.979Z,53.40
2017-06-26T06:14:57.251Z,52.00
2017-06-26T06:17:26.606Z,51.70
2017-06-26T06:19:54.886Z,51.60
2017-06-26T06:22:23.166Z,50.50
2017-06-26T06:24:51.496Z,50.70
2017-06-26T06:27:19.776Z,50.30
2017-06-26T06:29:48.069Z,50.00
2017-06-26T06:32:16.401Z,49.90
2017-06-26T06:34:44.680Z,49.80
2017-06-26T06:37:12.971Z,50.30
2017-06-26T06:39:42.059Z,50.90
2017-06-26T06:42:11.109Z,50.60
2017-06-26T06:44:39.389Z,50.50
2017-06-26T06:47:07.832Z,50.20
2017-06-26T06:49:36.096Z,49.10
2017-06-26T06:52:04.383Z,49.40
2017-06-26T06:54:33.459Z,49.10
2017-06-26T06:57:02.508Z,49.40
2017-06-26T06:59:30.788Z,48.90
2017-06-26T07:01:59.079Z,48.70
2017-06-26T07:04:27.355Z,48.20
2017-06-26T07:06:55.632Z,49.10
2017-06-26T07:09:23.941Z,48.90
2017-06-26T07:11:52.983Z,49.20
2017-06-26T07:14:21.379Z,48.80
2017-06-26T07:16:49.691Z,49.30
2017-06-26T07:19:17.968Z,47.70
2017-06-26T07:21:46.245Z,47.90
2017-06-26T07:24:14.747Z,48.30
2017-06-26T07:26:43.911Z,48.30
2017-06-26T07:29:12.958Z,48.30
2017-06-26T07:31:41.259Z,47.70
2017-06-26T07:34:10.308Z,47.90
2017-06-26T07:36:38.580Z,47.80
2017-06-26T07:39:06.898Z,47.90
2017-06-26T07:41:35.172Z,47.90
2017-06-26T07:44:03.459Z,47.70
2017-06-26T07:46:31.767Z,48.30
2017-06-26T07:49:00.041Z,47.80
2017-06-26T07:51:28.332Z,47.80
2017-06-26T07:53:56.657Z,47.20
2017-06-26T07:56:24.956Z,46.70
2017-06-26T07:58:53.245Z,47.30
2017-06-26T08:01:22.335Z,46.10
2017-06-26T08:03:51.420Z,46.00
2017-06-26T08:06:19.769Z,45.90
2017-06-26T08:08:49.897Z,46.50
2017-06-26T08:11:18.952Z,45.70
2017-06-26T08:13:47.245Z,45.70
2017-06-26T08:16:15.575Z,45.50
2017-06-26T08:18:44.203Z,45.10
2017-06-26T08:21:12.489Z,45.40
2017-06-26T08:23:40.816Z,44.90
2017-06-26T08:26:09.108Z,44.80
2017-06-26T08:28:37.375Z,44.40
2017-06-26T08:31:05.744Z,43.50
2017-06-26T08:33:34.816Z,43.30
2017-06-26T08:36:03.210Z,43.10
2017-06-26T08:38:32.291Z,44.70
2017-06-26T08:41:00.658Z,44.60
2017-06-26T08:43:29.712Z,43.80
2017-06-26T08:45:58.040Z,43.70
2017-06-26T08:48:26.330Z,44.10
2017-06-26T08:50:54.620Z,44.60
2017-06-26T08:53:23.712Z,42.70
2017-06-26T08:55:51.988Z,42.70
2017-06-26T08:58:20.280Z,42.40
2017-06-26T09:00:48.764Z,43.00
2017-06-26T09:03:17.048Z,41.80
2017-06-26T09:05:45.428Z,42.80
2017-06-26T09:08:13.767Z,43.50
2017-06-26T09:10:42.829Z,44.20
2017-06-26T09:13:11.115Z,43.40
2017-06-26T09:15:40.208Z,42.40
2017-06-26T09:18:08.612Z,42.30
2017-06-26T09:20:36.896Z,43.60
2017-06-26T09:23:05.388Z,43.80
2017-06-26T09:25:34.427Z,43.80
2017-06-26T09:28:02.717Z,43.80
2017-06-26T09:30:31.078Z,43.50
2017-06-26T09:32:59.354Z,41.80
2017-06-26T09:35:27.772Z,41.50
2017-06-26T09:37:56.088Z,41.50
2017-06-26T09:40:24.797Z,40.60
2017-06-26T09:42:53.205Z,40.80
2017-06-26T09:45:21.548Z,40.30
2017-06-26T09:47:49.849Z,40.10
2017-06-26T09:50:18.162Z,39.00
2017-06-26T09:52:46.486Z,39.30
2017-06-26T09:55:14.764Z,40.70
2017-06-26T09:57:43.040Z,40.20
2017-06-26T10:00:11.368Z,39.20
2017-06-26T10:02:39.664Z,40.50
2017-06-26T10:05:07.976Z,40.40
2017-06-26T10:07:37.373Z,39.30
2017-06-26T10:10:05.657Z,39.30
2017-06-26T10:12:33.961Z,39.50
2017-06-26T10:15:02.988Z,39.30
2017-06-26T10:17:31.279Z,39.90
2017-06-26T10:19:59.638Z,40.20
2017-06-26T10:22:27.952Z,40.70
2017-06-26T10:24:56.991Z,39.80
2017-06-26T10:27:25.268Z,39.60
2017-06-26T10:29:53.707Z,40.50
2017-06-26T10:32:23.000Z,40.00
2017-06-26T10:34:57.080Z,40.60
2017-06-26T10:37:26.341Z,39.00
2017-06-26T10:39:54.692Z,39.20
2017-06-26T10:42:24.028Z,40.70
2017-06-26T10:44:52.640Z,40.70
2017-06-26T10:47:21.709Z,39.70
2017-06-26T10:49:50.978Z,39.30
2017-06-26T10:52:19.270Z,39.20
2017-06-26T10:54:51.431Z,39.40
2017-06-26T10:57:22.397Z,39.40
2017-06-26T10:59:50.720Z,38.40
2017-06-26T11:02:19.021Z,38.90
2017-06-26T11:04:47.360Z,39.80
2017-06-26T11:07:15.664Z,38.30
2017-06-26T11:09:44.960Z,37.60
2017-06-26T11:12:14.064Z,36.70
2017-06-26T11:14:42.359Z,37.30
2017-06-26T11:17:10.673Z,35.60
2017-06-26T11:19:39.106Z,33.90
2017-06-26T11:22:08.814Z,35.50
2017-06-26T11:24:37.128Z,35.40
2017-06-26T11:27:05.473Z,36.40
2017-06-26T11:29:33.968Z,37.40
2017-06-26T11:32:02.286Z,37.50
2017-06-26T11:34:31.428Z,36.10
2017-06-26T11:36:59.726Z,36.10
2017-06-26T11:39:28.840Z,37.40
2017-06-26T11:41:57.192Z,36.60
2017-06-26T11:44:25.517Z,36.40
2017-06-26T11:46:53.824Z,36.60
2017-06-26T11:49:22.254Z,37.30
2017-06-26T11:51:50.611Z,36.90
2017-06-26T11:54:25.541Z,35.10
2017-06-26T11:56:56.918Z,36.30
2017-06-26T11:59:30.789Z,33.30
2017-06-26T12:02:01.678Z,33.10
2017-06-26T12:04:31.243Z,33.80
2017-06-26T12:06:59.516Z,33.70
2017-06-26T12:09:27.854Z,31.50
2017-06-26T12:11:56.182Z,32.20
2017-06-26T12:14:24.628Z,31.70
2017-06-26T12:16:53.523Z,30.20
2017-06-26T12:19:21.870Z,31.90
2017-06-26T12:21:50.173Z,29.50
2017-06-26T12:24:20.273Z,28.20
2017-06-26T12:26:48.845Z,28.60
2017-06-26T12:29:17.358Z,29.50
2017-06-26T12:31:45.724Z,29.30
2017-06-26T12:34:14.089Z,29.80
2017-06-26T12:36:42.422Z,30.00
2017-06-26T12:39:10.716Z,30.00
2017-06-26T12:41:39.033Z,30.10
2017-06-26T12:44:07.324Z,28.30
2017-06-26T12:46:35.608Z,29.20
2017-06-26T12:49:04.703Z,30.00
2017-06-26T12:51:32.992Z,30.10
2017-06-26T12:54:01.296Z,29.20
2017-06-26T12:56:29.600Z,29.30
2017-06-26T12:58:57.892Z,29.30
2017-06-26T13:01:26.188Z,29.10
2017-06-26T13:03:55.269Z,28.80
2017-06-26T13:06:24.320Z,29.50
2017-06-26T13:08:52.618Z,29.50
2017-06-26T13:11:21.693Z,28.60
2017-06-26T13:13:50.743Z,28.80
2017-06-26T13:16:19.040Z,28.80
2017-06-26T13:18:48.329Z,28.50
2017-06-26T13:21:16.613Z,28.50
2017-06-26T13:23:44.937Z,28.90
2017-06-26T13:26:13.259Z,28.30
2017-06-26T13:28:41.540Z,28.30
2017-06-26T13:31:09.812Z,27.70
2017-06-26T13:33:38.139Z,27.20
2017-06-26T13:36:06.433Z,26.50
2017-06-26T13:38:34.716Z,26.20
2017-06-26T13:41:03.789Z,26.20
2017-06-26T13:43:32.835Z,25.90
2017-06-26T13:46:01.112Z,26.40
2017-06-26T13:48:29.613Z,26.60
2017-06-26T13:50:57.889Z,26.00
2017-06-26T13:53:26.171Z,25.60
2017-06-26T13:55:54.484Z,24.90
2017-06-26T13:58:23.574Z,26.40
2017-06-26T14:00:52.636Z,25.20
2017-06-26T14:03:20.957Z,25.20
2017-06-26T14:05:49.260Z,25.30
2017-06-26T14:08:17.545Z,26.40
2017-06-26T14:10:46.631Z,26.10
2017-06-26T14:13:14.907Z,26.00
2017-06-26T14:15:43.187Z,25.90
2017-06-26T14:18:11.700Z,26.60
2017-06-26T14:20:40.749Z,26.00
2017-06-26T14:23:09.037Z,26.00
2017-06-26T14:25:38.324Z,25.70
2017-06-26T14:28:07.372Z,25.90
2017-06-26T14:30:35.667Z,25.90
2017-06-26T14:33:04.963Z,25.50
2017-06-26T14:35:34.009Z,24.70
2017-06-26T14:38:02.291Z,24.60
2017-06-26T14:40:31.372Z,25.70
2017-06-26T14:43:00.432Z,25.10
2017-06-26T14:45:28.713Z,25.10
2017-06-26T14:47:57.795Z,26.40
2017-06-26T14:50:26.907Z,26.50
2017-06-26T14:52:55.187Z,26.00
2017-06-26T14:55:23.518Z,26.40
2017-06-26T14:57:51.796Z,25.80
2017-06-26T15:00:20.109Z,25.90
2017-06-26T15:02:48.589Z,25.90
2017-06-26T15:05:17.640Z,27.10
2017-06-26T15:07:45.923Z,26.60
2017-06-26T15:10:14.289Z,27.20
2017-06-26T15:12:42.596Z,26.90
2017-06-26T15:15:10.874Z,27.50
2017-06-26T15:17:39.202Z,28.20
2017-06-26T15:20:07.492Z,27.60
2017-06-26T15:22:35.775Z,28.00
2017-06-26T15:25:04.109Z,27.50
2017-06-26T15:27:32.404Z,27.60
2017-06-26T15:30:00.700Z,27.70
2017-06-26T15:32:29.007Z,27.90
2017-06-26T15:34:57.304Z,28.30
2017-06-26T15:37:26.360Z,28.80
2017-06-26T15:39:54.675Z,28.40
2017-06-26T15:42:22.960Z,28.30
2017-06-26T15:44:51.264Z,28.50
2017-06-26T15:47:20.384Z,28.70
2017-06-26T15:49:48.669Z,28.70
2017-06-26T15:52:16.961Z,29.00
2017-06-26T15:54:45.284Z,28.30
2017-06-26T15:57:13.580Z,29.10
2017-06-26T15:59:41.877Z,28.60
2017-06-26T16:02:10.213Z,29.60
2017-06-26T16:04:39.280Z,28.80
2017-06-26T16:07:07.560Z,28.80
2017-06-26T16:09:36.644Z,29.10
2017-06-26T16:12:05.700Z,29.10
2017-06-26T16:17:09.449Z,29.00
2017-06-26T16:19:37.735Z,29.00
2017-06-26T16:22:06.024Z,29.90
2017-06-26T16:24:35.324Z,29.30
2017-06-26T16:27:04.429Z,29.40
2017-06-26T16:29:32.735Z,29.30
2017-06-26T16:32:01.046Z,29.30
2017-06-26T16:34:29.328Z,28.90
2017-06-26T16:36:57.616Z,29.30
2017-06-26T16:39:25.943Z,29.40
2017-06-26T16:41:54.229Z,29.70
2017-06-26T16:44:22.512Z,29.80
2017-06-26T16:46:50.871Z,29.90
2017-06-26T16:49:19.159Z,30.40
2017-06-26T16:51:47.444Z,30.40
2017-06-26T16:54:15.888Z,30.50
2017-06-26T16:56:44.939Z,30.40
2017-06-26T16:59:13.227Z,30.40
2017-06-26T17:01:42.319Z,30.90
2017-06-26T17:04:10.606Z,30.80
2017-06-26T17:06:38.884Z,30.50
2017-06-26T17:09:07.239Z,30.50
2017-06-26T17:11:35.516Z,30.80
2017-06-26T17:14:03.800Z,30.50
2017-06-26T17:16:33.000Z,31.00
2017-06-26T17:19:02.052Z,31.80
2017-06-26T17:21:30.337Z,31.80
2017-06-26T17:23:58.688Z,31.10
2017-06-26T17:26:27.748Z,31.90
2017-06-26T17:28:56.027Z,32.20
2017-06-26T17:31:24.368Z,31.60
2017-06-26T17:33:52.673Z,32.30
2017-06-26T17:36:21.328Z,32.10
2017-06-26T17:38:49.636Z,32.10
2017-06-26T17:41:17.916Z,32.10
2017-06-26T17:43:46.200Z,32.10
2017-06-26T17:46:14.692Z,32.70
2017-06-26T17:48:43.740Z,32.30
2017-06-26T17:51:12.028Z,32.30
2017-06-26T17:53:41.123Z,32.30
2017-06-26T17:56:09.408Z,32.20
2017-06-26T17:58:37.687Z,32.70
2017-06-26T18:01:06.201Z,32.70
2017-06-26T18:03:35.251Z,33.30
2017-06-26T18:06:03.527Z,33.30
2017-06-26T18:08:31.848Z,33.30
2017-06-26T18:11:00.137Z,33.80
2017-06-26T18:13:28.431Z,34.10
2017-06-26T18:15:58.325Z,34.30
2017-06-26T18:18:27.380Z,35.50
2017-06-26T18:20:56.639Z,35.40
2017-06-26T18:23:25.157Z,35.10
2017-06-26T18:25:54.213Z,34.20
2017-06-26T18:28:22.504Z,34.10
2017-06-26T18:30:50.975Z,35.30
2017-06-26T18:33:19.277Z,34.90
2017-06-26T18:35:47.552Z,35.10
2017-06-26T18:38:15.873Z,35.00
2017-06-26T18:40:44.176Z,35.40
2017-06-26T18:43:12.455Z,35.70
2017-06-26T18:45:40.804Z,36.00
2017-06-26T18:48:09.083Z,36.00
2017-06-26T18:50:38.132Z,36.40
2017-06-26T18:53:06.632Z,36.40
2017-06-26T18:55:35.724Z,37.00
2017-06-26T18:58:04.798Z,37.30
2017-06-26T19:00:33.980Z,36.90
2017-06-26T19:03:03.061Z,37.30
2017-06-26T19:05:32.096Z,37.80
2017-06-26T19:08:00.443Z,37.40
2017-06-26T19:10:28.739Z,37.50
2017-06-26T19:12:57.027Z,38.00
2017-06-26T19:15:27.133Z,38.50
2017-06-26T19:17:56.175Z,38.40
2017-06-26T19:20:24.448Z,38.40
2017-06-26T19:22:53.829Z,38.70
2017-06-26T19:25:23.093Z,38.70
2017-06-26T19:27:51.550Z,39.00
2017-06-26T19:30:19.993Z,40.00
2017-06-26T19:32:48.283Z,39.60
2017-06-26T19:35:16.575Z,39.90
2017-06-26T19:37:44.896Z,39.80
2017-06-26T19:40:13.213Z,39.80
2017-06-26T19:42:42.312Z,39.80
2017-06-26T19:45:10.675Z,39.70
2017-06-26T19:47:38.995Z,40.30
2017-06-26T19:50:07.298Z,40.00
2017-06-26T19:52:36.364Z,40.70
2017-06-26T19:55:05.408Z,40.60
2017-06-26T19:57:33.683Z,40.60
2017-06-26T20:00:02.057Z,40.80
2017-06-26T20:02:30.338Z,40.80
2017-06-26T20:04:58.631Z,41.30
2017-06-26T20:07:26.960Z,41.30
2017-06-26T20:09:56.011Z,41.60
2017-06-26T20:12:24.296Z,41.50
2017-06-26T20:14:53.692Z,42.20
2017-06-26T20:17:22.742Z,41.90
2017-06-26T20:19:51.048Z,41.90
2017-06-26T20:22:19.399Z,42.30
2017-06-26T20:24:48.432Z,42.00
2017-06-26T20:27:16.731Z,41.80
2017-06-26T20:29:45.062Z,42.00
2017-06-26T20:32:13.368Z,41.80
2017-06-26T20:34:41.644Z,42.50
2017-06-26T20:37:09.976Z,43.10
2017-06-26T20:39:38.261Z,42.50
2017-06-26T20:42:06.546Z,42.60
2017-06-26T20:44:34.871Z,42.80
2017-06-26T20:47:03.147Z,42.50
2017-06-26T20:49:31.431Z,42.30
2017-06-26T20:51:59.754Z,43.20
2017-06-26T20:54:28.827Z,42.50
2017-06-26T20:56:57.880Z,42.70
2017-06-26T20:59:26.196Z,42.70
2017-06-26T21:01:54.497Z,43.10
2017-06-26T21:04:22.796Z,43.40
2017-06-26T21:06:51.894Z,43.50
2017-06-26T21:09:20.187Z,43.40
2017-06-26T21:11:49.505Z,43.50
2017-06-26T21:14:18.006Z,42.90
2017-06-26T21:16:46.275Z,42.90
2017-06-26T21:19:15.732Z,44.10
2017-06-26T21:21:44.824Z,45.10
2017-06-26T21:24:13.124Z,45.00
2017-06-26T21:26:41.405Z,45.30
2017-06-26T21:29:09.720Z,45.90
2017-06-26T21:31:37.997Z,45.70
2017-06-26T21:34:06.286Z,46.10
2017-06-26T21:36:34.702Z,46.70
2017-06-26T21:39:02.986Z,46.50
2017-06-26T21:41:31.298Z,46.60
2017-06-26T21:43:59.836Z,46.60
2017-06-26T21:46:28.973Z,46.70
2017-06-26T21:48:57.296Z,46.60
2017-06-26T21:51:25.653Z,46.60
2017-06-26T21:53:54.628Z,46.80
2017-06-26T21:56:22.908Z,47.00
2017-06-26T21:58:51.232Z,48.10
2017-06-26T22:01:19.519Z,47.90
2017-06-26T22:03:47.840Z,47.70
2017-06-26T22:06:16.277Z,48.20
2017-06-26T22:08:44.551Z,48.20
2017-06-26T22:11:12.832Z,48.20
2017-06-26T22:13:41.180Z,48.00
2017-06-26T22:16:09.484Z,48.50
2017-06-26T22:18:37.764Z,48.80
2017-06-26T22:21:06.077Z,48.90
2017-06-26T22:23:34.352Z,49.40
2017-06-26T22:26:02.636Z,48.60
2017-06-26T22:28:31.139Z,48.90
2017-06-26T22:30:59.424Z,49.90
2017-06-26T22:33:28.540Z,50.30
2017-06-26T22:35:56.848Z,50.10
2017-06-26T22:38:26.115Z,50.30
2017-06-26T22:40:55.157Z,51.70
2017-06-26T22:43:23.492Z,51.00
2017-06-26T22:45:51.771Z,51.00
2017-06-26T22:48:20.047Z,51.40
2017-06-26T22:50:48.557Z,51.60
2017-06-26T22:53:17.591Z,52.40
2017-06-26T22:55:45.871Z,52.30
2017-06-26T22:58:14.202Z,52.00
2017-06-26T23:00:42.477Z,51.90
2017-06-26T23:03:10.752Z,52.60
2017-06-26T23:05:39.175Z,52.90
2017-06-26T23:08:07.456Z,53.00
2017-06-26T23:10:35.728Z,53.30
2017-06-26T23:13:04.055Z,53.80
2017-06-26T23:15:32.373Z,54.00
2017-06-26T23:18:01.545Z,54.00
2017-06-26T23:20:29.858Z,54.10
2017-06-26T23:22:58.136Z,53.30
2017-06-26T23:25:26.428Z,53.50
2017-06-26T23:27:54.807Z,53.80
2017-06-26T23:30:23.851Z,54.20
2017-06-26T23:32:52.538Z,54.10
2017-06-26T23:35:20.952Z,54.10
2017-06-26T23:37:49.281Z,54.40
2017-06-26T23:40:17.563Z,54.90
2017-06-26T23:42:46.752Z,55.90
2017-06-26T23:45:15.028Z,55.90
2017-06-26T23:47:43.311Z,55.90
2017-06-26T23:50:11.632Z,56.20
2017-06-26T23:52:40.673Z,56.50
2017-06-26T23:55:09.030Z,56.50
2017-06-26T23:57:37.340Z,56.70
